createdAt,value
2018-08-07T00:00:05.641Z,0.00
2018-08-07T00:01:05.652Z,0.00
2018-08-07T00:02:05.659Z,0.00
2018-08-07T00:03:05.665Z,0.00
2018-08-07T00:04:05.669Z,0.00
2018-08-07T00:05:05.682Z,0.00
2018-08-07T00:06:05.694Z,0.00
2018-08-07T00:07:05.696Z,0.00
2018-08-07T00:08:05.714Z,0.00
2018-08-07T00:09:05.722Z,0.00
2018-08-07T00:10:05.714Z,0.00
2018-08-07T00:11:05.724Z,0.00
2018-08-07T00:12:05.736Z,0.00
2018-08-07T00:13:05.740Z,0.00
2018-08-07T00:14:05.746Z,0.00
2018-08-07T00:15:05.755Z,0.00
2018-08-07T00:16:05.767Z,0.00
2018-08-07T00:17:05.771Z,0.00
2018-08-07T00:18:05.773Z,0.00
2018-08-07T00:19:05.782Z,0.00
2018-08-07T00:20:05.793Z,0.00
2018-08-07T00:21:05.797Z,0.00
2018-08-07T00:22:05.810Z,0.00
2018-08-07T00:23:05.809Z,0.00
2018-08-07T00:24:05.815Z,0.00
2018-08-07T00:25:05.822Z,0.00
2018-08-07T00:26:05.830Z,0.00
2018-08-07T00:27:05.840Z,0.00
2018-08-07T00:28:05.847Z,0.00
2018-08-07T00:29:05.852Z,0.00
2018-08-07T00:30:05.861Z,0.00
2018-08-07T00:31:05.867Z,0.00
2018-08-07T00:32:05.877Z,0.00
2018-08-07T00:33:05.877Z,0.00
2018-08-07T00:34:05.887Z,0.00
2018-08-07T00:35:05.893Z,0.00
2018-08-07T00:36:05.914Z,0.00
2018-08-07T00:37:05.911Z,0.00
2018-08-07T00:38:05.912Z,0.00
2018-08-07T00:39:05.922Z,0.00
2018-08-07T00:40:05.928Z,0.00
2018-08-07T00:41:05.946Z,0.00
2018-08-07T00:42:05.946Z,0.00
2018-08-07T00:43:05.946Z,0.00
2018-08-07T00:44:05.953Z,0.00
2018-08-07T00:45:05.966Z,0.00
2018-08-07T00:46:05.978Z,0.00
2018-08-07T00:47:05.978Z,0.00
2018-08-07T00:48:05.993Z,0.00
2018-08-07T00:49:05.993Z,0.00
2018-08-07T00:50:06.034Z,0.00
2018-08-07T00:51:06.005Z,0.00
2018-08-07T00:52:06.015Z,0.00
2018-08-07T00:53:06.027Z,0.00
2018-08-07T00:54:06.025Z,0.00
2018-08-07T00:55:06.035Z,0.00
2018-08-07T00:56:06.039Z,0.00
2018-08-07T00:57:06.043Z,0.00
2018-08-07T00:58:06.052Z,0.00
2018-08-07T00:59:06.061Z,0.00
2018-08-07T01:00:06.162Z,0.00
2018-08-07T01:01:06.107Z,0.00
2018-08-07T01:02:06.091Z,0.00
2018-08-07T01:03:06.085Z,0.00
2018-08-07T01:04:06.177Z,0.00
2018-08-07T01:05:06.116Z,0.00
2018-08-07T01:06:06.114Z,0.00
2018-08-07T01:07:06.114Z,0.00
2018-08-07T01:08:06.128Z,0.00
2018-08-07T01:09:06.168Z,0.00
2018-08-07T01:10:06.156Z,0.00
2018-08-07T01:11:06.143Z,0.00
2018-08-07T01:12:06.154Z,0.00
2018-08-07T01:13:06.166Z,0.00
2018-08-07T01:14:06.166Z,0.00
2018-08-07T01:15:06.179Z,0.00
2018-08-07T01:16:06.191Z,0.00
2018-08-07T01:17:06.183Z,0.00
2018-08-07T01:18:06.204Z,0.00
2018-08-07T01:19:06.202Z,0.00
2018-08-07T01:20:06.209Z,0.00
2018-08-07T01:21:06.214Z,0.00
2018-08-07T01:22:06.220Z,0.00
2018-08-07T01:23:06.223Z,0.00
2018-08-07T01:24:06.241Z,0.00
2018-08-07T01:25:06.244Z,0.00
2018-08-07T01:26:06.247Z,0.00
2018-08-07T01:27:06.294Z,0.00
2018-08-07T01:28:06.260Z,0.00
2018-08-07T01:29:06.273Z,0.00
2018-08-07T01:30:06.279Z,0.00
2018-08-07T01:31:06.279Z,0.00
2018-08-07T01:32:06.296Z,0.00
2018-08-07T01:33:06.305Z,0.00
2018-08-07T01:34:06.309Z,0.00
2018-08-07T01:35:06.307Z,0.00
2018-08-07T01:36:06.324Z,0.00
2018-08-07T01:37:06.324Z,0.00
2018-08-07T01:38:06.330Z,0.00
2018-08-07T01:39:06.338Z,0.00
2018-08-07T01:40:06.344Z,0.00
2018-08-07T01:41:06.350Z,0.00
2018-08-07T01:42:06.366Z,0.00
2018-08-07T01:43:06.359Z,0.00
2018-08-07T01:44:06.370Z,0.00
2018-08-07T01:45:06.386Z,0.00
2018-08-07T01:46:06.384Z,0.00
2018-08-07T01:47:06.388Z,0.00
2018-08-07T01:48:06.393Z,0.00
2018-08-07T01:49:06.405Z,0.00
2018-08-07T01:50:06.409Z,0.00
2018-08-07T01:51:06.416Z,0.00
2018-08-07T01:52:06.420Z,0.00
2018-08-07T01:53:06.423Z,0.00
2018-08-07T01:54:06.437Z,0.00
2018-08-07T01:55:06.437Z,0.00
2018-08-07T01:56:06.447Z,0.00
2018-08-07T01:57:06.449Z,0.00
2018-08-07T01:58:06.459Z,0.00
2018-08-07T01:59:06.480Z,0.00
2018-08-07T02:00:06.471Z,0.00
2018-08-07T02:01:06.478Z,0.00
2018-08-07T02:02:06.486Z,0.00
2018-08-07T02:03:06.491Z,0.00
2018-08-07T02:04:06.492Z,0.00
2018-08-07T02:05:06.501Z,0.00
2018-08-07T02:06:06.510Z,0.00
2018-08-07T02:07:06.527Z,0.00
2018-08-07T02:08:06.518Z,0.00
2018-08-07T02:09:06.528Z,0.00
2018-08-07T02:10:06.539Z,0.00
2018-08-07T02:11:06.545Z,0.00
2018-08-07T02:12:06.551Z,0.00
2018-08-07T02:13:06.551Z,0.00
2018-08-07T02:14:06.564Z,0.00
2018-08-07T02:15:06.578Z,0.00
2018-08-07T02:16:06.576Z,0.00
2018-08-07T02:17:06.583Z,0.00
2018-08-07T02:18:06.585Z,0.00
2018-08-07T02:19:06.592Z,0.00
2018-08-07T02:20:06.599Z,0.00
2018-08-07T02:21:06.607Z,0.00
2018-08-07T02:22:06.612Z,0.00
2018-08-07T02:23:06.619Z,0.00
2018-08-07T02:24:06.628Z,0.00
2018-08-07T02:25:15.261Z,0.00
2018-08-07T02:27:00.045Z,0.00
2018-08-07T02:28:00.039Z,0.00
2018-08-07T02:29:00.112Z,0.00
2018-08-07T02:30:00.067Z,0.00
2018-08-07T02:31:00.048Z,0.00
2018-08-07T02:32:00.063Z,0.00
2018-08-07T02:33:00.070Z,0.00
2018-08-07T02:34:00.077Z,0.00
2018-08-07T02:35:00.083Z,0.00
2018-08-07T02:36:00.091Z,0.00
2018-08-07T02:37:00.094Z,0.00
2018-08-07T02:38:00.103Z,0.00
2018-08-07T02:39:00.106Z,0.00
2018-08-07T02:40:00.115Z,0.00
2018-08-07T02:41:00.118Z,0.00
2018-08-07T02:42:00.130Z,0.00
2018-08-07T02:43:00.140Z,0.00
2018-08-07T02:44:00.138Z,0.00
2018-08-07T02:45:00.148Z,0.00
2018-08-07T02:46:00.152Z,0.00
2018-08-07T02:47:00.162Z,0.00
2018-08-07T02:48:00.176Z,0.00
2018-08-07T02:49:00.176Z,0.00
2018-08-07T02:50:00.179Z,0.00
2018-08-07T02:51:00.186Z,0.00
2018-08-07T02:52:00.190Z,0.00
2018-08-07T02:53:00.198Z,0.00
2018-08-07T02:54:00.199Z,0.00
2018-08-07T02:55:00.212Z,0.00
2018-08-07T02:56:00.214Z,0.00
2018-08-07T02:57:00.221Z,0.00
2018-08-07T02:58:00.227Z,0.00
2018-08-07T03:17:09.710Z,0.00
2018-08-07T03:18:09.679Z,0.00
2018-08-07T03:19:09.690Z,0.00
2018-08-07T03:20:09.694Z,0.00
2018-08-07T03:21:09.689Z,0.00
2018-08-07T03:22:09.694Z,0.00
2018-08-07T03:23:09.696Z,0.00
2018-08-07T03:24:09.698Z,0.00
2018-08-07T03:25:09.707Z,0.00
2018-08-07T03:26:09.712Z,0.00
2018-08-07T03:27:09.716Z,0.00
2018-08-07T03:28:09.722Z,0.00
2018-08-07T03:29:09.720Z,0.00
2018-08-07T03:30:09.735Z,0.00
2018-08-07T03:31:09.738Z,0.00
2018-08-07T03:32:09.736Z,0.00
2018-08-07T03:33:09.742Z,0.00
2018-08-07T03:34:09.758Z,0.00
2018-08-07T03:35:09.755Z,0.00
2018-08-07T03:36:09.757Z,0.00
2018-08-07T03:37:09.768Z,0.00
2018-08-07T03:38:09.766Z,0.00
2018-08-07T03:39:09.777Z,0.00
2018-08-07T03:40:09.780Z,0.00
2018-08-07T03:41:09.789Z,0.00
2018-08-07T03:42:09.791Z,0.00
2018-08-07T03:43:09.794Z,0.00
2018-08-07T03:44:09.805Z,0.00
2018-08-07T03:45:09.809Z,0.00
2018-08-07T03:46:09.812Z,0.00
2018-08-07T03:47:09.819Z,0.00
2018-08-07T03:48:09.823Z,0.00
2018-08-07T03:49:09.870Z,0.00
2018-08-07T03:50:09.836Z,0.00
2018-08-07T03:51:09.845Z,0.00
2018-08-07T03:52:09.850Z,0.00
2018-08-07T03:53:09.897Z,0.00
2018-08-07T03:54:09.862Z,0.00
2018-08-07T03:55:09.873Z,0.00
2018-08-07T03:56:09.868Z,0.00
2018-08-07T03:57:09.879Z,0.00
2018-08-07T03:58:09.886Z,0.00
2018-08-07T03:59:09.986Z,0.00
2018-08-07T04:00:09.896Z,0.00
2018-08-07T04:01:09.903Z,0.00
2018-08-07T04:02:09.917Z,0.00
2018-08-07T04:03:09.920Z,0.00
2018-08-07T04:04:09.918Z,0.00
2018-08-07T04:05:09.918Z,0.00
2018-08-07T04:06:09.930Z,0.00
2018-08-07T04:07:09.933Z,0.00
2018-08-07T04:08:09.936Z,0.00
2018-08-07T04:09:09.951Z,0.00
2018-08-07T04:10:09.953Z,0.00
2018-08-07T04:11:09.960Z,0.00
2018-08-07T04:12:09.958Z,0.00
2018-08-07T04:13:09.970Z,0.00
2018-08-07T04:14:09.971Z,0.00
2018-08-07T04:15:10.011Z,0.00
2018-08-07T04:16:09.985Z,0.00
2018-08-07T04:17:09.994Z,0.00
2018-08-07T04:18:09.999Z,0.00
2018-08-07T04:19:10.004Z,0.00
2018-08-07T04:20:10.011Z,0.00
2018-08-07T04:21:10.021Z,0.00
2018-08-07T04:22:10.017Z,0.00
2018-08-07T04:23:10.043Z,0.00
2018-08-07T04:24:10.029Z,0.00
2018-08-07T04:25:10.038Z,0.00
2018-08-07T04:26:10.091Z,0.00
2018-08-07T04:27:10.051Z,0.00
2018-08-07T04:28:10.056Z,0.00
2018-08-07T04:29:10.098Z,0.00
2018-08-07T04:30:10.077Z,0.00
2018-08-07T04:31:10.148Z,0.00
2018-08-07T04:32:10.100Z,0.00
2018-08-07T04:33:10.095Z,0.00
2018-08-07T04:34:10.126Z,0.00
2018-08-07T04:35:10.097Z,0.00
2018-08-07T04:36:10.093Z,0.00
2018-08-07T04:37:10.103Z,0.00
2018-08-07T04:38:10.131Z,0.00
2018-08-07T04:39:10.118Z,0.00
2018-08-07T04:40:10.128Z,0.00
2018-08-07T04:41:10.127Z,0.00
2018-08-07T04:42:10.134Z,0.00
2018-08-07T04:43:10.139Z,0.00
2018-08-07T04:44:10.720Z,5.63
2018-08-07T04:45:10.155Z,5.63
2018-08-07T04:46:10.162Z,5.63
2018-08-07T04:47:10.197Z,5.63
2018-08-07T04:48:10.161Z,5.63
2018-08-07T04:49:10.194Z,5.63
2018-08-07T04:50:10.201Z,5.63
2018-08-07T04:51:10.177Z,11.25
2018-08-07T04:52:10.184Z,11.25
2018-08-07T04:53:10.198Z,11.25
2018-08-07T04:54:10.209Z,11.25
2018-08-07T04:55:18.888Z,11.25
2018-08-07T04:57:04.723Z,16.88
2018-08-07T04:58:04.723Z,16.88
2018-08-07T04:59:04.695Z,16.88
2018-08-07T05:00:04.696Z,22.50
2018-08-07T05:01:13.354Z,28.13
2018-08-07T05:02:58.152Z,33.75
2018-08-07T05:03:58.110Z,33.75
2018-08-07T05:04:58.146Z,39.38
2018-08-07T05:05:58.115Z,39.38
2018-08-07T05:06:58.115Z,39.38
2018-08-07T05:07:58.138Z,39.38
2018-08-07T05:08:58.162Z,39.38
2018-08-07T05:09:58.147Z,39.38
2018-08-07T05:10:58.144Z,39.38
2018-08-07T05:11:58.169Z,45.00
2018-08-07T05:12:58.185Z,45.00
2018-08-07T05:13:58.182Z,45.00
2018-08-07T05:14:58.188Z,50.63
2018-08-07T05:15:58.199Z,50.63
2018-08-07T05:16:58.229Z,50.63
2018-08-07T05:17:58.233Z,50.63
2018-08-07T05:18:58.258Z,45.00
2018-08-07T05:19:58.252Z,50.63
2018-08-07T05:20:58.248Z,39.38
2018-08-07T05:21:58.260Z,39.38
2018-08-07T05:22:58.306Z,39.38
2018-08-07T05:23:58.304Z,39.38
2018-08-07T05:24:58.324Z,50.63
2018-08-07T05:25:58.312Z,50.63
2018-08-07T05:26:58.341Z,56.25
2018-08-07T05:27:58.356Z,61.88
2018-08-07T05:28:58.372Z,67.50
2018-08-07T05:29:58.464Z,73.13
2018-08-07T05:30:58.385Z,90.00
2018-08-07T05:31:58.399Z,101.25
2018-08-07T05:32:58.405Z,101.25
2018-08-07T05:33:58.413Z,95.63
2018-08-07T05:34:58.427Z,95.63
2018-08-07T05:35:58.505Z,95.63
2018-08-07T05:36:58.468Z,101.25
2018-08-07T05:37:58.484Z,101.25
2018-08-07T05:38:58.486Z,101.25
2018-08-07T05:39:58.530Z,101.25
2018-08-07T05:40:58.552Z,101.25
2018-08-07T05:41:58.529Z,95.63
2018-08-07T05:42:58.564Z,95.63
2018-08-07T05:43:58.562Z,95.63
2018-08-07T05:44:58.577Z,78.75
2018-08-07T05:45:58.587Z,84.38
2018-08-07T05:46:58.626Z,101.25
2018-08-07T05:47:58.650Z,101.25
2018-08-07T05:48:58.639Z,106.88
2018-08-07T05:49:58.691Z,112.50
2018-08-07T05:50:58.937Z,112.50
2018-08-07T05:51:58.708Z,112.50
2018-08-07T05:52:58.725Z,112.50
2018-08-07T05:53:58.741Z,112.50
2018-08-07T05:54:58.736Z,118.13
2018-08-07T05:55:58.762Z,118.13
2018-08-07T05:56:58.782Z,112.50
2018-08-07T05:57:58.818Z,123.75
2018-08-07T05:58:58.825Z,123.75
2018-08-07T05:59:58.846Z,118.13
2018-08-07T06:00:58.904Z,123.75
2018-08-07T06:01:58.871Z,129.38
2018-08-07T06:02:58.899Z,129.38
2018-08-07T06:03:58.889Z,135.00
2018-08-07T06:04:58.937Z,135.00
2018-08-07T06:05:58.943Z,140.63
2018-08-07T06:06:58.960Z,140.63
2018-08-07T06:07:58.959Z,146.25
2018-08-07T06:08:58.972Z,140.63
2018-08-07T06:09:59.010Z,146.25
2018-08-07T06:10:59.011Z,140.63
2018-08-07T06:11:59.028Z,118.13
2018-08-07T06:12:59.071Z,73.13
2018-08-07T06:13:59.064Z,45.00
2018-08-07T06:14:59.111Z,28.13
2018-08-07T06:15:59.137Z,16.88
2018-08-07T06:16:59.107Z,16.88
2018-08-07T06:17:59.133Z,16.88
2018-08-07T06:18:59.212Z,16.88
2018-08-07T06:19:59.162Z,16.88
2018-08-07T06:20:59.194Z,16.88
2018-08-07T06:21:59.176Z,16.88
2018-08-07T06:22:59.219Z,16.88
2018-08-07T06:23:59.215Z,16.88
2018-08-07T06:24:59.246Z,16.88
2018-08-07T06:25:59.243Z,16.88
2018-08-07T06:26:59.249Z,16.88
2018-08-07T06:27:59.295Z,16.88
2018-08-07T06:28:59.335Z,16.88
2018-08-07T06:29:59.334Z,16.88
2018-08-07T06:30:59.325Z,16.88
2018-08-07T06:31:59.301Z,16.88
2018-08-07T06:32:59.350Z,16.88
2018-08-07T06:33:59.352Z,16.88
2018-08-07T06:34:59.342Z,16.88
2018-08-07T06:35:59.384Z,16.88
2018-08-07T06:36:59.364Z,16.88
2018-08-07T06:37:59.388Z,16.88
2018-08-07T06:38:59.388Z,16.88
2018-08-07T06:39:59.401Z,16.88
2018-08-07T06:40:59.415Z,16.88
2018-08-07T06:41:59.432Z,16.88
2018-08-07T06:42:59.465Z,16.88
2018-08-07T06:43:59.438Z,16.88
2018-08-07T06:44:59.451Z,16.88
2018-08-07T06:45:59.456Z,16.88
2018-08-07T06:46:59.464Z,16.88
2018-08-07T06:47:59.492Z,16.88
2018-08-07T06:48:59.490Z,16.88
2018-08-07T06:49:59.494Z,16.88
2018-08-07T06:50:59.512Z,16.88
2018-08-07T06:51:59.518Z,16.88
2018-08-07T06:52:59.530Z,16.88
2018-08-07T06:53:59.538Z,16.88
2018-08-07T06:54:59.548Z,16.88
2018-08-07T06:55:59.565Z,16.88
2018-08-07T06:56:59.598Z,16.88
2018-08-07T06:57:59.581Z,16.88
2018-08-07T06:58:59.592Z,16.88
2018-08-07T06:59:59.607Z,16.88
2018-08-07T07:00:59.634Z,16.88
2018-08-07T07:01:59.674Z,16.88
2018-08-07T07:02:59.639Z,16.88
2018-08-07T07:03:59.652Z,16.88
2018-08-07T07:05:01.218Z,16.88
2018-08-07T07:05:59.669Z,16.88
2018-08-07T07:06:59.666Z,16.88
2018-08-07T07:07:59.725Z,16.88
2018-08-07T07:08:59.683Z,16.88
2018-08-07T07:09:59.697Z,16.88
2018-08-07T07:10:59.744Z,16.88
2018-08-07T07:11:59.708Z,16.88
2018-08-07T07:12:59.719Z,16.88
2018-08-07T07:13:59.733Z,16.88
2018-08-07T07:14:59.765Z,16.88
2018-08-07T07:15:59.757Z,16.88
2018-08-07T07:16:59.750Z,16.88
2018-08-07T07:17:59.759Z,16.88
2018-08-07T07:18:59.762Z,16.88
2018-08-07T07:19:59.812Z,16.88
2018-08-07T07:20:59.898Z,16.88
2018-08-07T07:21:59.804Z,16.88
2018-08-07T07:22:59.818Z,16.88
2018-08-07T07:23:59.837Z,16.88
2018-08-07T07:24:59.822Z,16.88
2018-08-07T07:25:59.852Z,16.88
2018-08-07T07:26:59.868Z,16.88
2018-08-07T07:27:59.871Z,16.88
2018-08-07T07:28:59.868Z,16.88
2018-08-07T07:29:59.915Z,16.88
2018-08-07T07:30:59.877Z,16.88
2018-08-07T07:31:59.915Z,16.88
2018-08-07T07:32:59.924Z,16.88
2018-08-07T07:33:59.979Z,11.25
2018-08-07T07:34:59.964Z,11.25
2018-08-07T07:35:59.928Z,11.25
2018-08-07T07:36:59.930Z,11.25
2018-08-07T07:37:59.973Z,11.25
2018-08-07T07:39:08.591Z,11.25
2018-08-07T07:40:54.382Z,11.25
2018-08-07T07:41:54.366Z,16.88
2018-08-07T07:42:54.383Z,16.88
2018-08-07T07:43:54.400Z,16.88
2018-08-07T07:44:54.409Z,16.88
2018-08-07T07:45:54.406Z,16.88
2018-08-07T07:46:54.533Z,16.88
2018-08-07T07:47:54.454Z,16.88
2018-08-07T07:48:54.437Z,11.25
2018-08-07T07:49:54.464Z,11.25
2018-08-07T07:50:54.448Z,11.25
2018-08-07T07:51:54.459Z,11.25
2018-08-07T07:52:54.492Z,11.25
2018-08-07T07:53:54.497Z,11.25
2018-08-07T07:54:54.484Z,11.25
2018-08-07T07:55:54.501Z,11.25
2018-08-07T07:57:03.137Z,11.25
2018-08-07T07:58:47.968Z,11.25
2018-08-07T07:59:47.946Z,11.25
2018-08-07T08:00:47.956Z,11.25
2018-08-07T08:01:47.963Z,11.25
2018-08-07T08:02:47.966Z,11.25
2018-08-07T08:03:47.984Z,11.25
2018-08-07T08:04:47.982Z,11.25
2018-08-07T08:05:47.996Z,11.25
2018-08-07T08:06:48.000Z,11.25
2018-08-07T08:07:48.014Z,11.25
2018-08-07T08:10:09.134Z,11.25
2018-08-07T08:11:09.156Z,11.25
2018-08-07T08:13:02.538Z,11.25
2018-08-07T08:14:02.570Z,11.25
2018-08-07T08:15:02.539Z,11.25
2018-08-07T08:16:02.563Z,11.25
2018-08-07T08:17:02.575Z,11.25
2018-08-07T08:18:02.567Z,11.25
2018-08-07T08:19:02.582Z,11.25
2018-08-07T08:20:02.598Z,11.25
2018-08-07T08:21:02.609Z,11.25
2018-08-07T08:22:02.608Z,11.25
2018-08-07T08:23:02.618Z,11.25
2018-08-07T08:24:02.639Z,11.25
2018-08-07T08:25:02.639Z,11.25
2018-08-07T08:26:02.636Z,11.25
2018-08-07T08:27:02.652Z,11.25
2018-08-07T08:28:02.659Z,11.25
2018-08-07T08:29:02.694Z,11.25
2018-08-07T08:30:02.868Z,11.25
2018-08-07T08:31:02.684Z,11.25
2018-08-07T08:32:02.699Z,11.25
2018-08-07T08:33:02.699Z,11.25
2018-08-07T08:34:02.709Z,11.25
2018-08-07T08:35:02.808Z,11.25
2018-08-07T08:36:02.725Z,11.25
2018-08-07T08:37:02.741Z,11.25
2018-08-07T08:38:02.755Z,11.25
2018-08-07T08:39:02.766Z,11.25
2018-08-07T08:40:02.769Z,11.25
2018-08-07T08:41:02.785Z,11.25
2018-08-07T08:42:02.789Z,11.25
2018-08-07T08:43:02.792Z,11.25
2018-08-07T08:44:02.813Z,11.25
2018-08-07T08:45:02.845Z,11.25
2018-08-07T08:46:02.830Z,11.25
2018-08-07T08:47:02.835Z,11.25
2018-08-07T08:48:02.910Z,11.25
2018-08-07T08:49:02.853Z,11.25
2018-08-07T08:50:02.874Z,11.25
2018-08-07T08:51:02.870Z,11.25
2018-08-07T08:52:02.878Z,11.25
2018-08-07T08:53:02.904Z,11.25
2018-08-07T08:54:02.968Z,11.25
2018-08-07T08:55:02.916Z,11.25
2018-08-07T08:56:02.912Z,11.25
2018-08-07T08:57:02.924Z,11.25
2018-08-07T08:58:02.952Z,11.25
2018-08-07T08:59:02.947Z,11.25
2018-08-07T09:00:02.958Z,11.25
2018-08-07T09:01:02.984Z,11.25
2018-08-07T09:02:02.978Z,11.25
2018-08-07T09:03:02.979Z,11.25
2018-08-07T09:04:03.009Z,11.25
2018-08-07T09:05:03.055Z,11.25
2018-08-07T09:06:03.017Z,11.25
2018-08-07T09:07:03.027Z,11.25
2018-08-07T09:08:03.030Z,11.25
2018-08-07T09:09:03.060Z,11.25
2018-08-07T09:10:03.050Z,11.25
2018-08-07T09:11:03.052Z,11.25
2018-08-07T09:12:03.058Z,11.25
2018-08-07T09:13:03.074Z,11.25
2018-08-07T09:14:03.080Z,11.25
2018-08-07T09:15:03.115Z,11.25
2018-08-07T09:16:03.105Z,11.25
2018-08-07T09:17:03.106Z,11.25
2018-08-07T09:18:03.140Z,11.25
2018-08-07T09:19:03.126Z,11.25
2018-08-07T09:20:03.137Z,11.25
2018-08-07T09:21:03.156Z,11.25
2018-08-07T09:22:05.132Z,11.25
2018-08-07T09:23:03.191Z,11.25
2018-08-07T09:24:03.223Z,11.25
2018-08-07T09:25:03.209Z,11.25
2018-08-07T09:26:03.281Z,11.25
2018-08-07T09:27:03.240Z,11.25
2018-08-07T09:28:03.275Z,11.25
2018-08-07T09:29:03.262Z,11.25
2018-08-07T09:30:03.259Z,11.25
2018-08-07T09:31:03.279Z,11.25
2018-08-07T09:32:03.261Z,11.25
2018-08-07T09:33:03.383Z,11.25
2018-08-07T09:34:03.286Z,11.25
2018-08-07T09:35:03.277Z,11.25
2018-08-07T09:36:03.325Z,11.25
2018-08-07T09:37:03.336Z,11.25
2018-08-07T09:38:03.326Z,11.25
2018-08-07T09:39:03.320Z,11.25
2018-08-07T09:40:03.377Z,11.25
2018-08-07T09:41:03.371Z,11.25
2018-08-07T09:42:03.359Z,11.25
2018-08-07T09:43:03.352Z,11.25
2018-08-07T09:44:03.381Z,11.25
2018-08-07T09:45:03.384Z,11.25
2018-08-07T09:46:03.391Z,11.25
2018-08-07T09:47:03.389Z,11.25
2018-08-07T09:48:03.459Z,11.25
2018-08-07T09:49:03.404Z,11.25
2018-08-07T09:50:03.437Z,11.25
2018-08-07T09:51:03.478Z,11.25
2018-08-07T09:52:03.488Z,11.25
2018-08-07T09:53:03.470Z,11.25
2018-08-07T09:54:03.511Z,11.25
2018-08-07T09:55:03.512Z,11.25
2018-08-07T09:56:03.479Z,11.25
2018-08-07T09:57:03.534Z,11.25
2018-08-07T09:58:03.522Z,11.25
2018-08-07T09:59:03.510Z,11.25
2018-08-07T10:00:03.521Z,11.25
2018-08-07T10:01:03.525Z,11.25
2018-08-07T10:02:03.554Z,11.25
2018-08-07T10:03:03.546Z,11.25
2018-08-07T10:04:03.581Z,11.25
2018-08-07T10:05:03.575Z,11.25
2018-08-07T10:06:03.575Z,11.25
2018-08-07T10:07:03.585Z,11.25
2018-08-07T10:08:03.611Z,11.25
2018-08-07T10:09:03.614Z,11.25
2018-08-07T10:10:12.247Z,11.25
2018-08-07T10:11:57.055Z,11.25
2018-08-07T10:12:57.090Z,11.25
2018-08-07T10:13:57.042Z,11.25
2018-08-07T10:15:05.721Z,11.25
2018-08-07T10:16:51.469Z,11.25
2018-08-07T10:17:51.482Z,11.25
2018-08-07T10:18:51.504Z,11.25
2018-08-07T10:19:51.489Z,11.25
2018-08-07T10:20:51.518Z,5.63
2018-08-07T10:21:51.525Z,5.63
2018-08-07T10:22:51.519Z,5.63
2018-08-07T10:23:51.566Z,5.63
2018-08-07T10:24:51.571Z,5.63
2018-08-07T10:25:51.566Z,5.63
2018-08-07T10:26:51.591Z,5.63
2018-08-07T10:27:51.572Z,5.63
2018-08-07T10:28:51.646Z,5.63
2018-08-07T10:29:51.590Z,5.63
2018-08-07T10:30:51.616Z,5.63
2018-08-07T10:31:51.660Z,5.63
2018-08-07T10:32:51.640Z,5.63
2018-08-07T10:33:51.647Z,5.63
2018-08-07T10:34:51.665Z,5.63
2018-08-07T10:35:51.680Z,5.63
2018-08-07T10:36:51.695Z,5.63
2018-08-07T10:37:51.696Z,5.63
2018-08-07T10:38:51.700Z,11.25
2018-08-07T10:39:51.705Z,5.63
2018-08-07T10:40:51.853Z,11.25
2018-08-07T10:41:51.735Z,11.25
2018-08-07T10:42:51.743Z,11.25
2018-08-07T10:43:51.947Z,11.25
2018-08-07T10:44:51.825Z,11.25
2018-08-07T10:45:51.775Z,11.25
2018-08-07T10:46:51.793Z,11.25
2018-08-07T10:47:51.886Z,11.25
2018-08-07T10:48:51.785Z,11.25
2018-08-07T10:49:51.791Z,11.25
2018-08-07T10:50:51.855Z,11.25
2018-08-07T10:51:51.817Z,11.25
2018-08-07T10:52:51.877Z,11.25
2018-08-07T10:53:51.845Z,11.25
2018-08-07T10:54:51.845Z,11.25
2018-08-07T10:55:51.850Z,11.25
2018-08-07T10:56:51.858Z,5.63
2018-08-07T10:57:51.873Z,5.63
2018-08-07T10:58:51.931Z,5.63
2018-08-07T10:59:51.908Z,5.63
2018-08-07T11:00:51.935Z,11.25
2018-08-07T11:01:51.923Z,5.63
2018-08-07T11:02:51.924Z,5.63
2018-08-07T11:03:51.942Z,11.25
2018-08-07T11:04:51.960Z,11.25
2018-08-07T11:05:52.035Z,11.25
2018-08-07T11:06:51.974Z,11.25
2018-08-07T11:07:52.009Z,11.25
2018-08-07T11:08:52.023Z,11.25
2018-08-07T11:09:52.017Z,11.25
2018-08-07T11:10:52.000Z,11.25
2018-08-07T11:11:52.026Z,11.25
2018-08-07T11:12:52.050Z,11.25
2018-08-07T11:13:52.190Z,11.25
2018-08-07T11:14:52.060Z,11.25
2018-08-07T11:15:52.099Z,11.25
2018-08-07T11:16:52.087Z,11.25
2018-08-07T11:17:52.088Z,11.25
2018-08-07T11:18:52.097Z,11.25
2018-08-07T11:19:52.117Z,11.25
2018-08-07T11:20:52.115Z,11.25
2018-08-07T11:21:52.144Z,11.25
2018-08-07T11:22:52.157Z,11.25
2018-08-07T11:23:52.163Z,11.25
2018-08-07T11:24:52.257Z,11.25
2018-08-07T11:25:52.161Z,11.25
2018-08-07T11:26:52.177Z,11.25
2018-08-07T11:27:52.214Z,11.25
2018-08-07T11:28:52.220Z,11.25
2018-08-07T11:29:52.221Z,11.25
2018-08-07T11:30:52.228Z,11.25
2018-08-07T11:31:52.227Z,11.25
2018-08-07T11:32:52.243Z,11.25
2018-08-07T11:33:52.248Z,11.25
2018-08-07T11:34:52.253Z,11.25
2018-08-07T11:35:52.277Z,11.25
2018-08-07T11:36:52.290Z,11.25
2018-08-07T11:37:52.307Z,11.25
2018-08-07T11:38:52.311Z,11.25
2018-08-07T11:39:52.308Z,11.25
2018-08-07T11:40:52.322Z,11.25
2018-08-07T11:41:52.360Z,11.25
2018-08-07T11:42:52.335Z,11.25
2018-08-07T11:43:52.388Z,11.25
2018-08-07T11:44:52.395Z,11.25
2018-08-07T11:45:52.373Z,11.25
2018-08-07T11:46:52.415Z,11.25
2018-08-07T11:47:52.441Z,11.25
2018-08-07T11:48:52.403Z,11.25
2018-08-07T11:49:52.415Z,11.25
2018-08-07T11:50:52.434Z,11.25
2018-08-07T11:51:52.428Z,11.25
2018-08-07T11:52:52.470Z,11.25
2018-08-07T11:53:52.473Z,11.25
2018-08-07T11:54:52.461Z,11.25
2018-08-07T11:55:52.469Z,11.25
2018-08-07T11:56:52.538Z,11.25
2018-08-07T11:57:52.547Z,11.25
2018-08-07T11:58:52.510Z,11.25
2018-08-07T11:59:52.575Z,11.25
2018-08-07T12:00:52.555Z,11.25
2018-08-07T12:01:52.591Z,11.25
2018-08-07T12:02:52.566Z,11.25
2018-08-07T12:03:52.563Z,11.25
2018-08-07T12:04:52.613Z,11.25
2018-08-07T12:05:52.576Z,11.25
2018-08-07T12:06:52.612Z,11.25
2018-08-07T12:07:52.698Z,11.25
2018-08-07T12:08:52.661Z,11.25
2018-08-07T12:09:52.625Z,11.25
2018-08-07T12:10:52.628Z,11.25
2018-08-07T12:11:52.666Z,11.25
2018-08-07T12:12:52.686Z,11.25
2018-08-07T12:13:52.678Z,11.25
2018-08-07T12:14:52.712Z,11.25
2018-08-07T12:15:52.682Z,11.25
2018-08-07T12:16:52.693Z,11.25
2018-08-07T12:17:52.705Z,11.25
2018-08-07T12:18:52.756Z,11.25
2018-08-07T12:19:52.777Z,11.25
2018-08-07T12:20:52.752Z,11.25
2018-08-07T12:21:52.765Z,11.25
2018-08-07T12:22:52.759Z,11.25
2018-08-07T12:23:52.803Z,11.25
2018-08-07T12:24:52.787Z,11.25
2018-08-07T12:25:52.800Z,11.25
2018-08-07T12:26:52.857Z,5.63
2018-08-07T12:27:52.900Z,11.25
2018-08-07T12:28:52.854Z,5.63
2018-08-07T12:29:52.835Z,5.63
2018-08-07T12:30:52.862Z,11.25
2018-08-07T12:31:52.889Z,5.63
2018-08-07T12:32:52.888Z,11.25
2018-08-07T12:33:52.880Z,11.25
2018-08-07T12:34:52.967Z,11.25
2018-08-07T12:35:52.915Z,11.25
2018-08-07T12:36:52.964Z,11.25
2018-08-07T12:37:52.928Z,11.25
2018-08-07T12:38:52.964Z,11.25
2018-08-07T12:39:52.942Z,5.63
2018-08-07T12:40:52.946Z,11.25
2018-08-07T12:41:52.979Z,11.25
2018-08-07T12:42:52.967Z,11.25
2018-08-07T12:43:52.969Z,11.25
2018-08-07T12:44:52.982Z,5.63
2018-08-07T12:45:52.994Z,5.63
2018-08-07T12:46:53.015Z,11.25
2018-08-07T12:47:53.031Z,11.25
2018-08-07T12:48:53.038Z,11.25
2018-08-07T12:49:53.055Z,11.25
2018-08-07T12:50:53.063Z,11.25
2018-08-07T12:51:53.062Z,11.25
2018-08-07T12:52:53.062Z,11.25
2018-08-07T12:53:53.083Z,11.25
2018-08-07T12:54:53.110Z,11.25
2018-08-07T12:55:53.144Z,11.25
2018-08-07T12:56:53.107Z,11.25
2018-08-07T12:57:53.155Z,11.25
2018-08-07T12:58:53.139Z,11.25
2018-08-07T12:59:53.164Z,11.25
2018-08-07T13:00:53.149Z,11.25
2018-08-07T13:01:53.177Z,11.25
2018-08-07T13:02:53.165Z,11.25
2018-08-07T13:03:53.181Z,11.25
2018-08-07T13:04:53.211Z,11.25
2018-08-07T13:05:53.234Z,11.25
2018-08-07T13:06:53.295Z,11.25
2018-08-07T13:07:53.243Z,11.25
2018-08-07T13:08:53.312Z,11.25
2018-08-07T13:10:02.903Z,11.25
2018-08-07T13:11:46.693Z,11.25
2018-08-07T13:12:46.710Z,11.25
2018-08-07T13:13:46.684Z,11.25
2018-08-07T13:14:46.721Z,11.25
2018-08-07T13:15:46.707Z,11.25
2018-08-07T13:16:46.705Z,11.25
2018-08-07T13:17:46.737Z,11.25
2018-08-07T13:18:46.738Z,11.25
2018-08-07T13:19:46.744Z,11.25
2018-08-07T13:20:46.769Z,11.25
2018-08-07T13:21:46.809Z,11.25
2018-08-07T13:22:56.293Z,11.25
2018-08-07T13:24:50.311Z,11.25
2018-08-07T13:27:03.458Z,5.63
2018-08-07T13:28:03.451Z,11.25
2018-08-07T13:29:03.459Z,11.25
2018-08-07T13:30:03.484Z,11.25
2018-08-07T13:31:03.532Z,5.63